createdAt,value
2023-02-16T00:00:50.596Z,22.45
2023-02-16T00:03:22.593Z,23.80
2023-02-16T00:05:49.965Z,23.55
2023-02-16T00:08:16.483Z,23.73
2023-02-16T00:11:03.518Z,24.67
2023-02-16T00:13:47.962Z,23.50
2023-02-16T00:16:20.254Z,23.10
2023-02-16T00:18:47.287Z,24.02
2023-02-16T00:21:14.384Z,23.63
2023-02-16T00:23:41.215Z,24.50
2023-02-16T00:26:20.134Z,22.73
2023-02-16T00:28:51.064Z,24.33
2023-02-16T00:31:20.270Z,22.88
2023-02-16T00:33:48.660Z,22.88
2023-02-16T00:36:16.017Z,24.00
2023-02-16T00:38:42.334Z,23.30
2023-02-16T00:41:39.221Z,23.00
2023-02-16T00:44:26.033Z,23.48
2023-02-16T00:46:53.022Z,24.88
2023-02-16T00:49:21.316Z,26.10
2023-02-16T00:51:50.288Z,23.85
2023-02-16T00:54:16.780Z,25.05
2023-02-16T00:56:43.560Z,24.17
2023-02-16T00:59:16.262Z,26.05
2023-02-16T01:01:43.060Z,23.80
2023-02-16T01:04:16.752Z,24.13
2023-02-16T01:07:02.034Z,24.17
2023-02-16T01:09:47.002Z,24.48
2023-02-16T01:12:19.923Z,24.52
2023-02-16T01:14:51.261Z,23.73
2023-02-16T01:17:17.630Z,25.25
2023-02-16T01:19:44.038Z,25.42
2023-02-16T01:22:10.370Z,24.13
2023-02-16T01:24:36.785Z,24.08
2023-02-16T01:27:03.343Z,25.33
2023-02-16T01:29:29.906Z,23.38
2023-02-16T01:31:56.620Z,24.33
2023-02-16T01:34:23.153Z,26.70
2023-02-16T01:36:49.638Z,25.80
2023-02-16T01:39:18.756Z,25.83
2023-02-16T01:42:06.961Z,25.02
2023-02-16T01:44:41.114Z,24.50
2023-02-16T01:47:33.075Z,25.55
2023-02-16T01:50:03.169Z,24.88
2023-02-16T01:52:43.844Z,24.20
2023-02-16T01:55:24.066Z,24.90
2023-02-16T01:57:59.950Z,25.25
2023-02-16T02:00:50.927Z,23.95
2023-02-16T02:03:43.294Z,25.58
2023-02-16T02:06:16.860Z,24.77
2023-02-16T02:08:49.038Z,26.13
2023-02-16T02:11:21.998Z,24.42
2023-02-16T02:14:20.307Z,23.67
2023-02-16T02:17:06.044Z,25.58
2023-02-16T02:19:44.482Z,23.50
2023-02-16T02:22:49.963Z,23.88
2023-02-16T02:26:09.421Z,23.58
2023-02-16T02:29:02.136Z,25.33
2023-02-16T02:31:40.455Z,25.65
2023-02-16T02:34:41.402Z,23.77
2023-02-16T02:37:28.509Z,23.23
2023-02-16T02:40:14.911Z,25.15
2023-02-16T02:42:51.601Z,24.20
2023-02-16T02:45:32.066Z,22.98
2023-02-16T02:47:58.680Z,24.57
2023-02-16T02:51:03.411Z,23.77
2023-02-16T02:53:30.603Z,25.48
2023-02-16T02:56:18.118Z,24.33
2023-02-16T02:59:06.338Z,25.30
2023-02-16T03:01:35.528Z,24.27
2023-02-16T03:04:03.978Z,23.60
2023-02-16T03:06:34.774Z,23.20
2023-02-16T03:09:11.364Z,24.15
2023-02-16T03:11:56.917Z,23.52
2023-02-16T03:14:34.379Z,23.80
2023-02-16T03:17:23.122Z,22.23
2023-02-16T03:20:09.816Z,23.75
2023-02-16T03:22:56.651Z,23.33
2023-02-16T03:25:44.798Z,23.98
2023-02-16T03:28:32.209Z,23.90
2023-02-16T03:31:01.519Z,24.48
2023-02-16T03:33:28.586Z,24.35
2023-02-16T03:35:55.897Z,25.20
2023-02-16T03:38:22.619Z,24.73
2023-02-16T03:40:50.526Z,23.40
2023-02-16T03:43:16.957Z,25.42
2023-02-16T03:45:45.218Z,24.63
2023-02-16T03:48:12.682Z,25.20
2023-02-16T03:50:39.016Z,25.02
2023-02-16T03:53:08.384Z,24.80
2023-02-16T03:55:43.732Z,24.73
2023-02-16T03:58:12.544Z,25.25
2023-02-16T04:00:39.730Z,23.85
2023-02-16T04:03:08.755Z,25.15
2023-02-16T04:05:35.775Z,24.67
2023-02-16T04:08:02.121Z,23.58
2023-02-16T04:10:28.808Z,24.88
2023-02-16T04:12:55.196Z,23.00
2023-02-16T04:15:24.672Z,25.48
2023-02-16T04:17:51.077Z,24.57
2023-02-16T04:20:23.326Z,24.45
2023-02-16T04:22:50.357Z,24.08
2023-02-16T04:25:18.672Z,25.90
2023-02-16T04:27:45.777Z,25.30
2023-02-16T04:30:17.955Z,25.53
2023-02-16T04:32:44.606Z,24.85
2023-02-16T04:35:11.247Z,25.27
2023-02-16T04:37:37.807Z,24.75
2023-02-16T04:40:05.548Z,24.83
2023-02-16T04:42:31.957Z,24.90
2023-02-16T04:44:58.286Z,24.63
2023-02-16T04:47:26.575Z,26.00
2023-02-16T04:49:53.408Z,25.80
2023-02-16T04:52:20.337Z,25.13
2023-02-16T04:54:46.704Z,25.87
2023-02-16T04:57:13.011Z,26.92
2023-02-16T04:59:39.299Z,24.95
2023-02-16T05:02:05.872Z,25.30
2023-02-16T05:04:32.298Z,26.10
2023-02-16T05:06:58.676Z,25.93
2023-02-16T05:09:25.050Z,24.95
2023-02-16T05:12:10.302Z,26.50
2023-02-16T05:14:42.669Z,25.98
2023-02-16T05:17:13.106Z,24.85
2023-02-16T05:19:40.885Z,25.73
2023-02-16T05:22:08.223Z,27.92
2023-02-16T05:24:34.970Z,26.15
2023-02-16T05:27:03.149Z,26.45
2023-02-16T05:29:30.115Z,26.38
2023-02-16T05:31:56.803Z,24.93
2023-02-16T05:34:23.386Z,25.70
2023-02-16T05:36:49.725Z,28.05
2023-02-16T05:39:16.394Z,26.70
2023-02-16T05:41:42.701Z,25.38
2023-02-16T05:44:09.710Z,28.30
2023-02-16T05:46:38.252Z,26.35
2023-02-16T05:49:06.338Z,27.08
2023-02-16T05:51:33.728Z,26.95
2023-02-16T05:54:00.121Z,27.83
2023-02-16T05:56:26.894Z,25.30
2023-02-16T05:58:53.827Z,26.65
2023-02-16T06:01:21.016Z,28.60
2023-02-16T06:03:48.089Z,25.13
2023-02-16T06:06:14.627Z,26.48
2023-02-16T06:08:41.353Z,26.03
2023-02-16T06:11:27.698Z,28.17
2023-02-16T06:13:59.158Z,27.25
2023-02-16T06:16:26.903Z,27.95
2023-02-16T06:18:54.412Z,27.17
2023-02-16T06:21:21.582Z,25.43
2023-02-16T06:23:48.028Z,28.35
2023-02-16T06:26:15.583Z,27.75
2023-02-16T06:28:41.956Z,27.30
2023-02-16T06:31:08.633Z,27.33
2023-02-16T06:33:35.060Z,27.53
2023-02-16T06:36:01.569Z,26.83
2023-02-16T06:38:27.887Z,28.48
2023-02-16T06:40:54.664Z,27.20
2023-02-16T06:43:21.784Z,28.13
2023-02-16T06:45:48.955Z,27.00
2023-02-16T06:48:15.944Z,26.98
2023-02-16T06:50:42.314Z,27.63
2023-02-16T06:53:08.783Z,27.30
2023-02-16T06:55:36.784Z,27.52
2023-02-16T06:58:05.020Z,27.63
2023-02-16T07:00:31.878Z,27.42
2023-02-16T07:02:58.458Z,27.75
2023-02-16T07:05:25.667Z,27.42
2023-02-16T07:07:52.270Z,27.60
2023-02-16T07:10:20.054Z,27.73
2023-02-16T07:12:47.301Z,27.13
2023-02-16T07:15:13.764Z,26.63
2023-02-16T07:17:40.321Z,27.75
2023-02-16T07:20:07.877Z,28.63
2023-02-16T07:22:34.388Z,27.07
2023-02-16T07:25:00.785Z,28.05
2023-02-16T07:27:27.430Z,27.83
2023-02-16T07:29:53.860Z,27.48
2023-02-16T07:32:20.281Z,28.70
2023-02-16T07:34:46.779Z,27.77
2023-02-16T07:37:13.116Z,28.42
2023-02-16T07:39:39.506Z,27.70
2023-02-16T07:42:05.871Z,28.27
2023-02-16T07:44:32.305Z,28.60
2023-02-16T07:46:58.717Z,27.23
2023-02-16T07:49:25.085Z,26.15
2023-02-16T07:51:51.443Z,28.42
2023-02-16T07:54:17.789Z,28.45
2023-02-16T07:56:44.207Z,29.17
2023-02-16T07:59:10.542Z,27.63
2023-02-16T08:01:37.805Z,28.65
2023-02-16T08:04:04.308Z,28.30
2023-02-16T08:06:30.657Z,28.38
2023-02-16T08:08:57.230Z,27.92
2023-02-16T08:11:24.892Z,27.93
2023-02-16T08:13:52.240Z,27.17
2023-02-16T08:16:27.216Z,27.15
2023-02-16T08:18:56.528Z,27.17
2023-02-16T08:21:25.733Z,28.63
2023-02-16T08:24:01.244Z,27.17
2023-02-16T08:26:39.227Z,27.88
2023-02-16T08:29:07.371Z,28.17
2023-02-16T08:31:35.336Z,28.13
2023-02-16T08:34:03.340Z,27.48
2023-02-16T08:36:41.327Z,28.47
2023-02-16T08:39:19.337Z,26.48
2023-02-16T08:41:47.989Z,26.85
2023-02-16T08:44:15.595Z,26.30
2023-02-16T08:46:44.782Z,26.52
2023-02-16T08:49:11.791Z,26.37
2023-02-16T08:51:43.818Z,28.27
2023-02-16T08:54:16.733Z,27.65
2023-02-16T08:56:46.926Z,27.42
2023-02-16T08:59:18.335Z,27.20
2023-02-16T09:01:45.010Z,25.50
2023-02-16T09:04:12.907Z,28.10
2023-02-16T09:06:41.502Z,27.30
2023-02-16T09:09:09.174Z,26.50
2023-02-16T09:11:36.425Z,25.73
2023-02-16T09:14:03.857Z,26.27
2023-02-16T09:16:33.863Z,27.20
2023-02-16T09:19:01.762Z,28.77
2023-02-16T09:21:32.380Z,27.70
2023-02-16T09:24:01.618Z,28.77
2023-02-16T09:26:31.500Z,26.97
2023-02-16T09:28:59.158Z,27.30
2023-02-16T09:31:29.211Z,27.25
2023-02-16T09:34:02.353Z,27.55
2023-02-16T09:36:29.262Z,27.77
2023-02-16T09:38:56.657Z,28.50
2023-02-16T09:41:38.883Z,26.23
2023-02-16T09:44:34.465Z,27.58
2023-02-16T09:47:05.966Z,27.73
2023-02-16T09:49:40.779Z,31.33
2023-02-16T09:52:36.668Z,27.30
2023-02-16T09:55:08.220Z,27.88
2023-02-16T09:58:07.970Z,28.30
2023-02-16T10:00:34.239Z,26.77
2023-02-16T10:03:37.196Z,28.42
2023-02-16T10:06:25.018Z,27.50
2023-02-16T10:09:12.989Z,27.75
2023-02-16T10:11:48.636Z,28.20
2023-02-16T10:15:01.429Z,27.08
2023-02-16T10:17:44.192Z,27.67
2023-02-16T10:20:40.567Z,27.27
2023-02-16T10:23:24.770Z,27.33
2023-02-16T10:26:02.340Z,28.48
2023-02-16T10:28:48.211Z,28.20
2023-02-16T10:31:36.708Z,28.58
2023-02-16T10:34:10.028Z,28.23
2023-02-16T10:37:09.439Z,28.33
2023-02-16T10:39:46.662Z,29.15
2023-02-16T10:42:29.725Z,28.85
2023-02-16T10:45:31.857Z,27.92
2023-02-16T10:47:58.576Z,27.37
2023-02-16T10:50:38.981Z,27.65
2023-02-16T10:53:21.169Z,28.17
2023-02-16T10:55:47.569Z,27.35
2023-02-16T10:58:22.796Z,29.27
2023-02-16T11:01:15.869Z,28.37
2023-02-16T11:03:49.186Z,28.17
2023-02-16T11:06:23.171Z,28.67
2023-02-16T11:08:57.241Z,29.52
2023-02-16T11:11:37.516Z,30.70
2023-02-16T11:14:19.331Z,27.57
2023-02-16T11:16:46.520Z,26.85
2023-02-16T11:19:24.856Z,28.13
2023-02-16T11:21:58.959Z,28.80
2023-02-16T11:24:29.538Z,28.92
2023-02-16T11:27:02.095Z,29.77
2023-02-16T11:29:29.033Z,28.50
2023-02-16T11:31:56.508Z,29.65
2023-02-16T11:34:35.657Z,30.00
2023-02-16T11:37:16.365Z,29.00
2023-02-16T11:39:50.415Z,29.03
2023-02-16T11:42:29.843Z,27.38
2023-02-16T11:44:58.976Z,30.00
2023-02-16T11:47:33.240Z,28.25
2023-02-16T11:50:19.287Z,28.45
2023-02-16T11:52:49.464Z,29.50
2023-02-16T11:55:26.994Z,27.75
2023-02-16T11:57:54.193Z,29.80
2023-02-16T12:00:22.908Z,29.58
2023-02-16T12:03:15.698Z,30.05
2023-02-16T12:05:52.830Z,30.20
2023-02-16T12:08:37.815Z,29.92
2023-02-16T12:11:35.854Z,30.35
2023-02-16T12:14:33.340Z,28.50
2023-02-16T12:17:17.763Z,30.10
2023-02-16T12:19:47.878Z,29.43
2023-02-16T12:22:26.257Z,29.95
2023-02-16T12:25:19.796Z,29.63
2023-02-16T12:28:22.644Z,29.98
2023-02-16T12:31:01.053Z,27.77
2023-02-16T12:33:38.601Z,30.57
2023-02-16T12:36:46.698Z,27.33
2023-02-16T12:39:28.432Z,26.38
2023-02-16T12:42:10.919Z,26.25
2023-02-16T12:44:45.895Z,27.58
2023-02-16T12:47:20.771Z,27.57
2023-02-16T12:49:58.044Z,26.75
2023-02-16T12:52:40.602Z,27.25
2023-02-16T12:55:21.857Z,25.88
2023-02-16T12:58:09.819Z,27.77
2023-02-16T13:00:57.153Z,25.23
2023-02-16T13:03:29.406Z,28.50
2023-02-16T13:06:07.281Z,26.10
2023-02-16T13:08:56.010Z,26.88
2023-02-16T13:11:28.562Z,25.10
2023-02-16T13:14:00.542Z,25.70
2023-02-16T13:16:43.217Z,26.55
2023-02-16T13:19:14.177Z,25.98
2023-02-16T13:21:52.647Z,25.25
2023-02-16T13:24:34.263Z,25.45
2023-02-16T13:27:15.220Z,25.63
2023-02-16T13:29:47.809Z,23.27
2023-02-16T13:32:34.746Z,23.73
2023-02-16T13:35:29.989Z,22.13
2023-02-16T13:38:05.279Z,23.27
2023-02-16T13:40:58.928Z,23.17
2023-02-16T13:43:34.018Z,20.75
2023-02-16T13:46:07.550Z,21.85
2023-02-16T13:48:46.312Z,20.85
2023-02-16T13:51:18.260Z,20.42
2023-02-16T13:53:55.649Z,20.60
2023-02-16T13:56:33.007Z,19.65
2023-02-16T13:59:19.521Z,19.95
2023-02-16T14:01:47.490Z,17.60
2023-02-16T14:04:22.900Z,18.13
2023-02-16T14:06:52.211Z,19.70
2023-02-16T14:09:19.297Z,18.92
2023-02-16T14:11:52.823Z,18.48
2023-02-16T14:15:00.195Z,18.23
2023-02-16T14:17:31.225Z,18.27
2023-02-16T14:20:24.996Z,17.87
2023-02-16T14:23:00.412Z,18.88
2023-02-16T14:25:28.818Z,17.42
2023-02-16T14:27:58.615Z,17.90
2023-02-16T14:30:35.907Z,17.92
2023-02-16T14:33:16.182Z,18.30
2023-02-16T14:36:00.693Z,17.95
2023-02-16T14:38:37.618Z,18.15
2023-02-16T14:41:08.753Z,17.17
2023-02-16T14:43:41.254Z,17.60
2023-02-16T14:46:16.937Z,17.23
2023-02-16T14:48:55.433Z,17.88
2023-02-16T14:51:53.820Z,18.08
2023-02-16T14:54:49.055Z,17.52
2023-02-16T14:57:23.463Z,16.48
2023-02-16T14:59:59.582Z,17.27
2023-02-16T15:02:39.538Z,16.42
2023-02-16T15:05:21.024Z,15.10
2023-02-16T15:07:51.426Z,14.55
2023-02-16T15:10:26.642Z,13.57
2023-02-16T15:12:55.281Z,11.80
2023-02-16T15:15:38.914Z,11.90
2023-02-16T15:18:08.198Z,12.32
2023-02-16T15:20:38.746Z,11.82
2023-02-16T15:23:18.381Z,13.60
2023-02-16T15:25:53.414Z,12.53
2023-02-16T15:28:22.806Z,11.73
2023-02-16T15:31:05.594Z,13.05
2023-02-16T15:33:41.278Z,13.27
2023-02-16T15:36:13.258Z,12.38
2023-02-16T15:38:42.214Z,12.93
2023-02-16T15:41:13.933Z,13.82
2023-02-16T15:43:47.543Z,14.35
2023-02-16T15:46:24.496Z,13.93
2023-02-16T15:48:51.180Z,13.55
2023-02-16T15:51:25.223Z,14.27
2023-02-16T15:53:53.699Z,14.13
2023-02-16T15:56:31.301Z,15.98
2023-02-16T15:59:01.547Z,14.48
2023-02-16T16:01:34.237Z,16.85
2023-02-16T16:04:19.041Z,13.97
2023-02-16T16:06:48.043Z,15.55
2023-02-16T16:09:29.590Z,14.75
2023-02-16T16:12:00.674Z,16.33
2023-02-16T16:14:28.068Z,16.38
2023-02-16T16:16:55.613Z,16.47
2023-02-16T16:19:34.145Z,14.95
2023-02-16T16:22:02.509Z,15.77
2023-02-16T16:24:34.872Z,16.95
2023-02-16T16:27:06.498Z,16.63
2023-02-16T16:29:53.070Z,16.70
2023-02-16T16:32:28.798Z,15.57
2023-02-16T16:34:55.630Z,16.52
2023-02-16T16:37:24.993Z,15.88
2023-02-16T16:39:59.377Z,17.00
2023-02-16T16:42:26.120Z,16.67
2023-02-16T16:44:55.576Z,16.05
2023-02-16T16:47:26.153Z,16.40
2023-02-16T16:50:03.923Z,15.82
2023-02-16T16:52:49.985Z,15.50
2023-02-16T16:55:19.238Z,15.93
2023-02-16T16:57:46.706Z,17.70
2023-02-16T17:00:14.505Z,18.15
2023-02-16T17:02:40.858Z,17.70
2023-02-16T17:05:07.976Z,18.50
2023-02-16T17:07:34.501Z,18.10
2023-02-16T17:10:01.282Z,18.52
2023-02-16T17:12:28.178Z,18.17
2023-02-16T17:14:55.318Z,17.58
2023-02-16T17:17:21.866Z,18.92
2023-02-16T17:19:48.224Z,19.33
2023-02-16T17:22:17.799Z,18.58
2023-02-16T17:24:44.548Z,19.27
2023-02-16T17:27:11.557Z,19.63
2023-02-16T17:29:38.037Z,19.23
2023-02-16T17:32:04.992Z,19.33
2023-02-16T17:34:34.785Z,20.42
2023-02-16T17:37:10.028Z,22.05
2023-02-16T17:39:36.618Z,20.55
2023-02-16T17:42:02.971Z,20.92
2023-02-16T17:44:29.695Z,21.67
2023-02-16T17:46:56.180Z,20.95
2023-02-16T17:49:22.581Z,21.88
2023-02-16T17:51:48.908Z,21.52
2023-02-16T17:54:16.002Z,21.67
2023-02-16T17:56:45.657Z,21.00
2023-02-16T17:59:16.930Z,20.67
2023-02-16T18:01:44.560Z,21.10
2023-02-16T18:04:11.804Z,21.35
2023-02-16T18:06:40.669Z,21.52
2023-02-16T18:09:07.798Z,20.33
2023-02-16T18:11:34.139Z,22.27
2023-02-16T18:14:01.761Z,21.63
2023-02-16T18:16:28.325Z,22.63
2023-02-16T18:18:57.451Z,20.42
2023-02-16T18:21:24.321Z,20.60
2023-02-16T18:23:51.274Z,20.95
2023-02-16T18:26:17.809Z,22.23
2023-02-16T18:28:44.710Z,21.15
2023-02-16T18:31:12.842Z,20.25
2023-02-16T18:33:39.234Z,21.50
2023-02-16T18:36:06.154Z,19.98
2023-02-16T18:38:32.838Z,20.73
2023-02-16T18:41:02.684Z,19.35
2023-02-16T18:43:29.226Z,20.30
2023-02-16T18:45:55.651Z,19.20
2023-02-16T18:48:22.022Z,18.85
2023-02-16T18:50:48.805Z,19.65
2023-02-16T18:53:15.371Z,20.23
2023-02-16T18:55:41.757Z,19.38
2023-02-16T18:58:08.633Z,18.53
2023-02-16T19:00:36.578Z,19.02
2023-02-16T19:03:03.432Z,17.85
2023-02-16T19:05:30.035Z,18.02
2023-02-16T19:07:56.637Z,18.73
2023-02-16T19:10:23.269Z,20.03
2023-02-16T19:12:49.671Z,19.95
2023-02-16T19:15:15.986Z,19.77
2023-02-16T19:17:42.546Z,19.88
2023-02-16T19:20:12.093Z,19.42
2023-02-16T19:22:38.608Z,18.80
2023-02-16T19:25:06.415Z,18.05
2023-02-16T19:27:33.339Z,19.92
2023-02-16T19:29:59.760Z,18.00
2023-02-16T19:32:26.182Z,17.75
2023-02-16T19:34:52.577Z,17.40
2023-02-16T19:37:19.101Z,17.65
2023-02-16T19:39:45.510Z,17.02
2023-02-16T19:42:11.875Z,16.45
2023-02-16T19:44:39.419Z,16.77
2023-02-16T19:47:07.780Z,15.87
2023-02-16T19:49:36.476Z,15.98
2023-02-16T19:52:04.128Z,16.63
2023-02-16T19:54:33.035Z,15.95
2023-02-16T19:56:59.410Z,14.93
2023-02-16T19:59:25.914Z,15.40
2023-02-16T20:01:52.394Z,14.65
2023-02-16T20:04:18.849Z,15.65
2023-02-16T20:06:45.955Z,14.32
2023-02-16T20:09:14.041Z,14.38
2023-02-16T20:11:41.073Z,13.60
2023-02-16T20:14:07.514Z,14.55
2023-02-16T20:16:33.893Z,13.90
2023-02-16T20:19:00.565Z,13.68
2023-02-16T20:21:28.833Z,13.30
2023-02-16T20:24:01.070Z,12.03
2023-02-16T20:26:36.082Z,12.25
2023-02-16T20:29:04.637Z,12.02
2023-02-16T20:31:40.959Z,12.30
2023-02-16T20:34:09.138Z,11.63
2023-02-16T20:36:37.086Z,11.30
2023-02-16T20:39:05.713Z,12.05
2023-02-16T20:41:32.321Z,11.57
2023-02-16T20:44:01.371Z,11.80
2023-02-16T20:46:28.507Z,11.13
2023-02-16T20:48:55.130Z,10.70
2023-02-16T20:51:21.915Z,11.20
2023-02-16T20:53:48.468Z,10.40
2023-02-16T20:56:20.586Z,10.80
2023-02-16T20:58:49.444Z,10.02
2023-02-16T21:01:27.625Z,10.47
2023-02-16T21:03:56.295Z,10.55
2023-02-16T21:06:22.882Z,8.45
2023-02-16T21:08:49.515Z,8.82
2023-02-16T21:11:16.188Z,9.65
2023-02-16T21:13:42.732Z,8.97
2023-02-16T21:16:10.089Z,9.32
2023-02-16T21:18:40.051Z,8.85
2023-02-16T21:21:06.853Z,9.35
2023-02-16T21:23:33.527Z,9.57
2023-02-16T21:26:02.392Z,9.13
2023-02-16T21:28:28.973Z,9.30
2023-02-16T21:30:55.988Z,9.13
2023-02-16T21:33:22.797Z,9.13
2023-02-16T21:35:49.170Z,10.13
2023-02-16T21:38:17.586Z,8.70
2023-02-16T21:41:02.652Z,7.97
2023-02-16T21:43:29.048Z,8.13
2023-02-16T21:46:01.745Z,7.97
2023-02-16T21:48:50.330Z,8.80
2023-02-16T21:51:24.344Z,7.67
2023-02-16T21:53:50.980Z,8.82
2023-02-16T21:56:29.240Z,8.32
2023-02-16T21:58:56.327Z,7.93
2023-02-16T22:01:35.216Z,8.05
2023-02-16T22:04:02.770Z,7.70
2023-02-16T22:06:32.306Z,8.27
2023-02-16T22:09:00.458Z,8.02
2023-02-16T22:11:26.981Z,8.15
2023-02-16T22:13:55.866Z,7.50
2023-02-16T22:16:22.953Z,7.17
2023-02-16T22:18:49.413Z,6.45
2023-02-16T22:21:16.170Z,7.45
2023-02-16T22:23:42.648Z,7.13
2023-02-16T22:26:09.402Z,6.03
2023-02-16T22:28:37.278Z,6.30
2023-02-16T22:31:08.414Z,5.82
2023-02-16T22:33:35.342Z,5.60
2023-02-16T22:36:09.996Z,5.75
2023-02-16T22:38:36.631Z,5.80
2023-02-16T22:41:07.147Z,6.17
2023-02-16T22:43:34.201Z,5.68
2023-02-16T22:46:07.778Z,5.22
2023-02-16T22:48:35.789Z,5.63
2023-02-16T22:51:05.317Z,5.57
2023-02-16T22:53:32.382Z,5.93
2023-02-16T22:55:59.390Z,5.82
2023-02-16T22:58:25.961Z,6.03
2023-02-16T23:00:52.636Z,6.07
2023-02-16T23:03:19.276Z,6.55
2023-02-16T23:05:45.664Z,6.67
2023-02-16T23:08:12.054Z,7.10
2023-02-16T23:10:39.557Z,7.22
2023-02-16T23:13:08.978Z,7.00
2023-02-16T23:15:35.945Z,6.72
2023-02-16T23:18:02.350Z,7.40
2023-02-16T23:20:28.892Z,6.95
2023-02-16T23:22:55.356Z,7.57
2023-02-16T23:25:33.845Z,6.88
2023-02-16T23:28:04.352Z,7.22
2023-02-16T23:30:31.406Z,6.53
2023-02-16T23:32:57.888Z,8.00
2023-02-16T23:35:24.261Z,7.07
2023-02-16T23:37:51.677Z,7.70
2023-02-16T23:40:18.179Z,6.70
2023-02-16T23:42:44.804Z,8.30
2023-02-16T23:45:11.098Z,7.53
2023-02-16T23:47:37.455Z,8.27
2023-02-16T23:50:04.028Z,8.27
2023-02-16T23:52:30.338Z,8.98
2023-02-16T23:54:56.711Z,9.07
2023-02-16T23:57:23.074Z,10.30
2023-02-16T23:59:49.409Z,10.15
